< < Back
Terminal Aerodrome Forecast


Current Version              Previous Versions:   1  2  3  4  5  6  7  8  9  

Terminal Aerodrome Forecast

791
FTUS42 KJAX 282340
TAFGNV
TAF
KGNV 282340Z 2900/2924 VRB05KT P6SM SCT100
     FM291600 32008KT P6SM SCT035=



Latest METAR

898
SAUS70 KWBC 290000 RRJ
MTRGNV
METAR KGNV 282353Z 08004KT 10SM FEW090 28/20 A3000 RMK AO2 SLP157
T02780200 10328 20278 51008


USA.gov is the U.S. government's official web portal to all federal, state and local government web resources and services.